sensor_id;sensor_type;location;lat;lon;timestamp;pressure;altitude;pressure_sealevel;temperature;humidity
69957;BME280;57283;54.816;9.482;2023-01-04T06:30:12;100204.25;;;6.61;100.00
69957;BME280;57283;54.816;9.482;2023-01-04T06:32:40;100195.38;;;6.71;100.00
69957;BME280;57283;54.816;9.482;2023-01-04T06:35:08;100191.03;;;6.73;100.00
69957;BME280;57283;54.816;9.482;2023-01-04T06:37:36;100177.72;;;6.88;100.00
69957;BME280;57283;54.816;9.482;2023-01-04T06:40:05;100178.41;;;6.98;100.00
69957;BME280;57283;54.816;9.482;2023-01-04T06:42:33;100181.72;;;7.05;100.00
69957;BME280;57283;54.816;9.482;2023-01-04T06:45:15;100163.53;;;7.05;100.00
69957;BME280;57283;54.816;9.482;2023-01-04T06:47:43;100177.06;;;7.20;100.00
69957;BME280;57283;54.816;9.482;2023-01-04T06:50:13;100160.47;;;7.26;100.00
69957;BME280;57283;54.816;9.482;2023-01-04T06:52:41;100128.72;;;7.15;100.00
69957;BME280;57283;54.816;9.482;2023-01-04T06:55:09;100099.66;;;6.99;100.00
69957;BME280;57283;54.816;9.482;2023-01-04T06:57:37;100147.81;;;7.49;100.00
69957;BME280;57283;54.816;9.482;2023-01-04T07:00:06;100134.06;;;7.44;100.00
69957;BME280;57283;54.816;9.482;2023-01-04T07:02:36;100137.13;;;7.61;100.00
69957;BME280;57283;54.816;9.482;2023-01-04T07:05:04;100093.19;;;7.52;100.00
69957;BME280;57283;54.816;9.482;2023-01-04T07:07:33;100122.97;;;7.73;100.00
69957;BME280;57283;54.816;9.482;2023-01-04T07:10:01;100126.53;;;7.70;100.00
69957;BME280;57283;54.816;9.482;2023-01-04T07:12:35;100127.09;;;7.82;100.00
69957;BME280;57283;54.816;9.482;2023-01-04T07:15:05;100139.09;;;7.87;100.00
69957;BME280;57283;54.816;9.482;2023-01-04T07:17:55;100095.88;;;7.83;100.00
69957;BME280;57283;54.816;9.482;2023-01-04T07:20:23;100106.88;;;7.93;100.00
69957;BME280;57283;54.816;9.482;2023-01-04T07:22:51;100106.47;;;8.08;100.00
69957;BME280;57283;54.816;9.482;2023-01-04T07:25:19;100108.16;;;8.09;100.00
69957;BME280;57283;54.816;9.482;2023-01-04T07:27:49;100104.44;;;8.19;100.00
69957;BME280;57283;54.816;9.482;2023-01-04T07:30:17;100086.28;;;8.18;100.00
69957;BME280;57283;54.816;9.482;2023-01-04T07:32:45;100094.03;;;8.19;100.00
69957;BME280;57283;54.816;9.482;2023-01-04T07:35:14;100088.84;;;8.19;100.00
69957;BME280;57283;54.816;9.482;2023-01-04T07:37:42;100090.34;;;8.26;100.00
69957;BME280;57283;54.816;9.482;2023-01-04T07:40:10;100082.34;;;8.35;100.00
69957;BME280;57283;54.816;9.482;2023-01-04T07:42:38;100086.66;;;8.36;100.00
69957;BME280;57283;54.816;9.482;2023-01-04T07:45:07;100080.44;;;8.40;100.00
69957;BME280;57283;54.816;9.482;2023-01-04T07:47:35;100071.03;;;8.36;100.00
69957;BME280;57283;54.816;9.482;2023-01-04T07:50:03;99985.47;;;7.95;100.00
69957;BME280;57283;54.816;9.482;2023-01-04T07:52:35;100063.16;;;8.38;100.00
69957;BME280;57283;54.816;9.482;2023-01-04T07:55:03;100062.13;;;8.44;100.00
69957;BME280;57283;54.816;9.482;2023-01-04T07:57:30;100071.19;;;8.60;100.00
69957;BME280;57283;54.816;9.482;2023-01-04T07:59:58;100080.63;;;8.64;100.00
69957;BME280;57283;54.816;9.482;2023-01-04T08:02:26;100065.88;;;8.64;100.00
69957;BME280;57283;54.816;9.482;2023-01-04T08:04:55;100080.47;;;8.70;100.00
69957;BME280;57283;54.816;9.482;2023-01-04T08:07:23;100083.75;;;8.75;100.00
69957;BME280;57283;54.816;9.482;2023-01-04T08:09:52;100076.00;;;8.73;100.00
69957;BME280;57283;54.816;9.482;2023-01-04T08:12:19;99985.69;;;8.18;100.00
69957;BME280;57283;54.816;9.482;2023-01-04T08:14:47;100067.97;;;8.81;100.00
69957;BME280;57283;54.816;9.482;2023-01-04T08:17:15;100087.88;;;8.84;100.00
69957;BME280;57283;54.816;9.482;2023-01-04T08:19:43;100067.78;;;8.87;100.00
69957;BME280;57283;54.816;9.482;2023-01-04T08:22:12;100079.88;;;8.88;100.00
69957;BME280;57283;54.816;9.482;2023-01-04T08:24:40;100077.91;;;8.96;100.00
69957;BME280;57283;54.816;9.482;2023-01-04T08:27:10;100088.25;;;8.99;100.00
69957;BME280;57283;54.816;9.482;2023-01-04T08:29:37;100088.34;;;8.96;100.00
69957;BME280;57283;54.816;9.482;2023-01-04T08:32:05;100084.75;;;9.00;100.00
69957;BME280;57283;54.816;9.482;2023-01-04T08:34:33;100082.94;;;9.02;100.00
69957;BME280;57283;54.816;9.482;2023-01-04T08:37:01;100075.19;;;9.01;100.00
69957;BME280;57283;54.816;9.482;2023-01-04T08:39:29;100073.38;;;9.03;100.00
69957;BME280;57283;54.816;9.482;2023-01-04T08:42:01;100076.66;;;9.08;100.00
69957;BME280;57283;54.816;9.482;2023-01-04T08:44:45;100053.00;;;9.16;100.00
69957;BME280;57283;54.816;9.482;2023-01-04T08:47:13;100068.63;;;9.16;100.00
69957;BME280;57283;54.816;9.482;2023-01-04T08:49:41;100073.63;;;9.22;100.00
69957;BME280;57283;54.816;9.482;2023-01-04T08:52:09;100073.63;;;9.22;100.00
69957;BME280;57283;54.816;9.482;2023-01-04T08:54:37;100076.00;;;9.29;100.00
69957;BME280;57283;54.816;9.482;2023-01-04T08:57:05;100064.63;;;9.32;100.00
69957;BME280;57283;54.816;9.482;2023-01-04T08:59:32;100043.38;;;9.18;100.00
69957;BME280;57283;54.816;9.482;2023-01-04T09:02:02;100067.25;;;9.32;100.00
69957;BME280;57283;54.816;9.482;2023-01-04T09:04:31;100035.00;;;9.08;100.00
69957;BME280;57283;54.816;9.482;2023-01-04T09:06:59;100064.78;;;9.27;100.00
69957;BME280;57283;54.816;9.482;2023-01-04T09:09:27;100070.69;;;9.32;100.00
69957;BME280;57283;54.816;9.482;2023-01-04T09:11:56;100076.75;;;9.33;100.00
69957;BME280;57283;54.816;9.482;2023-01-04T09:14:25;100046.28;;;9.08;100.00
69957;BME280;57283;54.816;9.482;2023-01-04T09:16:53;100050.13;;;9.23;100.00
69957;BME280;57283;54.816;9.482;2023-01-04T09:19:22;100063.41;;;9.16;100.00
69957;BME280;57283;54.816;9.482;2023-01-04T09:21:50;100049.91;;;9.04;100.00
69957;BME280;57283;54.816;9.482;2023-01-04T09:24:18;100077.16;;;9.21;100.00
69957;BME280;57283;54.816;9.482;2023-01-04T09:26:45;100073.53;;;9.25;100.00
69957;BME280;57283;54.816;9.482;2023-01-04T09:29:14;100068.22;;;9.28;100.00
69957;BME280;57283;54.816;9.482;2023-01-04T09:31:41;100069.94;;;9.29;100.00
69957;BME280;57283;54.816;9.482;2023-01-04T09:34:10;100070.59;;;9.35;100.00
69957;BME280;57283;54.816;9.482;2023-01-04T09:36:46;100051.84;;;9.24;100.00
69957;BME280;57283;54.816;9.482;2023-01-04T09:39:15;100072.94;;;9.43;100.00
69957;BME280;57283;54.816;9.482;2023-01-04T09:41:54;100070.94;;;9.51;100.00
69957;BME280;57283;54.816;9.482;2023-01-04T09:44:29;100083.38;;;9.43;100.00
69957;BME280;57283;54.816;9.482;2023-01-04T09:47:24;100072.75;;;9.49;100.00
69957;BME280;57283;54.816;9.482;2023-01-04T09:49:57;100045.50;;;9.33;100.00
69957;BME280;57283;54.816;9.482;2023-01-04T09:52:37;100069.34;;;9.47;100.00
69957;BME280;57283;54.816;9.482;2023-01-04T09:55:08;100069.34;;;9.47;100.00
69957;BME280;57283;54.816;9.482;2023-01-04T09:58:04;100067.53;;;9.49;100.00
69957;BME280;57283;54.816;9.482;2023-01-04T10:00:36;100060.63;;;9.48;100.00
69957;BME280;57283;54.816;9.482;2023-01-04T10:03:13;100051.84;;;9.51;100.00
69957;BME280;57283;54.816;9.482;2023-01-04T10:05:44;100073.66;;;9.48;100.00
69957;BME280;57283;54.816;9.482;2023-01-04T10:08:15;100030.81;;;9.30;100.00
69957;BME280;57283;54.816;9.482;2023-01-04T10:10:51;100055.22;;;9.54;100.00
69957;BME280;57283;54.816;9.482;2023-01-04T10:13:37;100060.31;;;9.57;100.00
69957;BME280;57283;54.816;9.482;2023-01-04T10:16:14;100054.47;;;9.51;100.00
69957;BME280;57283;54.816;9.482;2023-01-04T10:19:17;100049.16;;;9.54;100.00
69957;BME280;57283;54.816;9.482;2023-01-04T10:22:10;100048.44;;;9.49;100.00
69957;BME280;57283;54.816;9.482;2023-01-04T10:24:52;100051.69;;;9.55;100.00
69957;BME280;57283;54.816;9.482;2023-01-04T10:27:27;100050.69;;;9.59;100.00
69957;BME280;57283;54.816;9.482;2023-01-04T10:30:16;100034.84;;;9.65;100.00
69957;BME280;57283;54.816;9.482;2023-01-04T10:32:53;100032.31;;;9.62;100.00
69957;BME280;57283;54.816;9.482;2023-01-04T10:35:31;100015.34;;;9.51;100.00
69957;BME280;57283;54.816;9.482;2023-01-04T10:38:01;99992.91;;;9.47;100.00
69957;BME280;57283;54.816;9.482;2023-01-04T10:40:34;100036.50;;;9.68;100.00
69957;BME280;57283;54.816;9.482;2023-01-04T10:43:11;100019.19;;;9.65;100.00
69957;BME280;57283;54.816;9.482;2023-01-04T10:45:45;100020.00;;;9.67;100.00
69957;BME280;57283;54.816;9.482;2023-01-04T10:48:21;100016.88;;;9.56;100.00
69957;BME280;57283;54.816;9.482;2023-01-04T10:50:54;100025.41;;;9.61;100.00
69957;BME280;57283;54.816;9.482;2023-01-04T10:53:32;100029.56;;;9.67;100.00
69957;BME280;57283;54.816;9.482;2023-01-04T10:56:08;99928.25;;;9.06;100.00
69957;BME280;57283;54.816;9.482;2023-01-04T10:58:57;100013.31;;;9.59;100.00
69957;BME280;57283;54.816;9.482;2023-01-04T11:01:31;100013.78;;;9.71;100.00
69957;BME280;57283;54.816;9.482;2023-01-04T11:04:05;100002.66;;;9.66;100.00
69957;BME280;57283;54.816;9.482;2023-01-04T11:06:39;99991.97;;;9.72;100.00
69957;BME280;57283;54.816;9.482;2023-01-04T11:09:12;99961.28;;;9.56;100.00
69957;BME280;57283;54.816;9.482;2023-01-04T11:11:54;99980.69;;;9.72;100.00
69957;BME280;57283;54.816;9.482;2023-01-04T11:14:23;99972.25;;;9.65;100.00
69957;BME280;57283;54.816;9.482;2023-01-04T11:16:59;99995.38;;;9.74;100.00
69957;BME280;57283;54.816;9.482;2023-01-04T11:19:28;99947.31;;;9.58;100.00
69957;BME280;57283;54.816;9.482;2023-01-04T11:22:01;99968.75;;;9.66;100.00
69957;BME280;57283;54.816;9.482;2023-01-04T11:24:34;99988.47;;;9.73;100.00
69957;BME280;57283;54.816;9.482;2023-01-04T11:27:10;99954.66;;;9.47;100.00
69957;BME280;57283;54.816;9.482;2023-01-04T11:29:43;99974.06;;;9.63;100.00
69957;BME280;57283;54.816;9.482;2023-01-04T11:32:16;99970.50;;;9.66;100.00
69957;BME280;57283;54.816;9.482;2023-01-04T11:34:48;99978.88;;;9.74;100.00
69957;BME280;57283;54.816;9.482;2023-01-04T11:37:26;99975.47;;;9.72;100.00
69957;BME280;57283;54.816;9.482;2023-01-04T11:40:11;99957.38;;;9.69;100.00
69957;BME280;57283;54.816;9.482;2023-01-04T11:42:40;99956.41;;;9.71;100.00
69957;BME280;57283;54.816;9.482;2023-01-04T11:45:21;99968.91;;;9.87;100.00
69957;BME280;57283;54.816;9.482;2023-01-04T11:47:52;99924.88;;;9.54;100.00
69957;BME280;57283;54.816;9.482;2023-01-04T11:50:34;99918.72;;;9.55;100.00
69957;BME280;57283;54.816;9.482;2023-01-04T11:53:02;99863.06;;;9.33;100.00
69957;BME280;57283;54.816;9.482;2023-01-04T11:55:29;99863.06;;;9.33;100.00
69957;BME280;57283;54.816;9.482;2023-01-04T11:58:09;99863.06;;;9.33;100.00
69957;BME280;57283;54.816;9.482;2023-01-04T12:00:38;99964.69;;;10.06;100.00
69957;BME280;57283;54.816;9.482;2023-01-04T12:03:17;99964.69;;;10.06;100.00
69957;BME280;57283;54.816;9.482;2023-01-04T12:05:48;99964.69;;;10.06;100.00
69957;BME280;57283;54.816;9.482;2023-01-04T12:08:26;99964.69;;;10.06;100.00
69957;BME280;57283;54.816;9.482;2023-01-04T12:10:55;99964.69;;;10.06;100.00
69957;BME280;57283;54.816;9.482;2023-01-04T12:13:25;99964.69;;;10.06;100.00
69957;BME280;57283;54.816;9.482;2023-01-04T12:16:02;99964.69;;;10.06;100.00
69957;BME280;57283;54.816;9.482;2023-01-04T12:18:35;99964.69;;;10.06;100.00
69957;BME280;57283;54.816;9.482;2023-01-04T12:21:04;99964.69;;;10.06;100.00
69957;BME280;57283;54.816;9.482;2023-01-04T12:23:32;99964.69;;;10.06;100.00
69957;BME280;57283;54.816;9.482;2023-01-04T12:26:00;99964.69;;;10.06;100.00
69957;BME280;57283;54.816;9.482;2023-01-04T12:28:35;99964.69;;;10.06;100.00
69957;BME280;57283;54.816;9.482;2023-01-04T12:31:30;99964.69;;;10.06;100.00
69957;BME280;57283;54.816;9.482;2023-01-04T12:34:37;99964.69;;;10.06;100.00
69957;BME280;57283;54.816;9.482;2023-01-04T12:37:07;99964.69;;;10.06;100.00
69957;BME280;57283;54.816;9.482;2023-01-04T12:39:39;99964.69;;;10.06;100.00
69957;BME280;57283;54.816;9.482;2023-01-04T12:42:26;99964.69;;;10.06;100.00
69957;BME280;57283;54.816;9.482;2023-01-04T12:45:14;99964.69;;;10.06;100.00
69957;BME280;57283;54.816;9.482;2023-01-04T12:47:53;99964.69;;;10.06;100.00
69957;BME280;57283;54.816;9.482;2023-01-04T12:54:00;99964.69;;;10.06;100.00
69957;BME280;57283;54.816;9.482;2023-01-04T12:59:35;99964.69;;;10.06;100.00
69957;BME280;57283;54.816;9.482;2023-01-04T13:02:13;99964.69;;;10.06;100.00
69957;BME280;57283;54.816;9.482;2023-01-04T13:04:42;99964.69;;;10.06;100.00
69957;BME280;57283;54.816;9.482;2023-01-04T13:07:15;99964.69;;;10.06;100.00
69957;BME280;57283;54.816;9.482;2023-01-04T13:09:51;99964.69;;;10.06;100.00
69957;BME280;57283;54.816;9.482;2023-01-04T13:12:55;99964.69;;;10.06;100.00
69957;BME280;57283;54.816;9.482;2023-01-04T13:15:38;99964.69;;;10.06;100.00
69957;BME280;57283;54.816;9.482;2023-01-04T13:18:27;99964.69;;;10.06;100.00
69957;BME280;57283;54.816;9.482;2023-01-04T13:23:28;58064.31;;;-143.23;100.00
69957;BME280;57283;54.816;9.482;2023-01-04T13:29:16;76564.25;;;-143.23;100.00
69957;BME280;57283;54.816;9.482;2023-01-04T13:31:47;76564.25;;;-143.23;100.00
69957;BME280;57283;54.816;9.482;2023-01-04T13:36:54;58064.31;;;-143.23;100.00
69957;BME280;57283;54.816;9.482;2023-01-04T13:39:23;76564.25;;;-143.23;100.00
69957;BME280;57283;54.816;9.482;2023-01-04T13:41:51;76564.25;;;-143.23;100.00
69957;BME280;57283;54.816;9.482;2023-01-04T13:44:30;76564.25;;;-143.23;100.00
69957;BME280;57283;54.816;9.482;2023-01-04T13:47:26;99964.69;;;10.06;100.00
69957;BME280;57283;54.816;9.482;2023-01-04T13:52:22;99964.69;;;10.06;100.00
69957;BME280;57283;54.816;9.482;2023-01-04T13:55:11;99964.69;;;10.06;100.00
69957;BME280;57283;54.816;9.482;2023-01-04T13:57:52;76564.25;;;-143.23;100.00
69957;BME280;57283;54.816;9.482;2023-01-04T14:00:21;99964.69;;;10.06;100.00
69957;BME280;57283;54.816;9.482;2023-01-04T14:03:17;76564.25;;;-143.23;100.00
69957;BME280;57283;54.816;9.482;2023-01-04T14:05:52;99964.69;;;10.06;100.00
69957;BME280;57283;54.816;9.482;2023-01-04T14:08:30;99964.69;;;-143.22;100.00
69957;BME280;57283;54.816;9.482;2023-01-04T14:11:00;76564.25;;;-143.23;100.00
69957;BME280;57283;54.816;9.482;2023-01-04T14:13:28;76564.25;;;-143.23;100.00
69957;BME280;57283;54.816;9.482;2023-01-04T14:18:33;76564.25;;;-143.23;100.00
69957;BME280;57283;54.816;9.482;2023-01-04T14:21:01;76564.25;;;-143.23;100.00
69957;BME280;57283;54.816;9.482;2023-01-04T14:23:32;58064.31;;;-143.23;100.00
69957;BME280;57283;54.816;9.482;2023-01-04T14:28:36;76564.25;;;-143.23;100.00
69957;BME280;57283;54.816;9.482;2023-01-04T14:31:29;99964.69;;;10.06;100.00
69957;BME280;57283;54.816;9.482;2023-01-04T14:34:05;99964.69;;;10.06;100.00
69957;BME280;57283;54.816;9.482;2023-01-04T14:36:34;76564.25;;;-143.23;100.00
69957;BME280;57283;54.816;9.482;2023-01-04T14:39:19;76564.25;;;-143.23;100.00
69957;BME280;57283;54.816;9.482;2023-01-04T14:41:53;76564.25;;;-143.23;100.00
69957;BME280;57283;54.816;9.482;2023-01-04T14:44:24;58064.31;;;-143.23;nan
69957;BME280;57283;54.816;9.482;2023-01-04T14:46:57;58064.31;;;-143.23;100.00
69957;BME280;57283;54.816;9.482;2023-01-04T14:51:55;76564.25;;;-143.23;100.00
69957;BME280;57283;54.816;9.482;2023-01-04T14:54:24;99964.69;;;10.06;100.00
69957;BME280;57283;54.816;9.482;2023-01-04T14:56:53;99964.69;;;10.06;100.00
69957;BME280;57283;54.816;9.482;2023-01-04T14:59:22;99964.69;;;10.06;100.00
69957;BME280;57283;54.816;9.482;2023-01-04T15:01:50;76564.25;;;-143.23;100.00
69957;BME280;57283;54.816;9.482;2023-01-04T15:06:49;99964.69;;;-143.23;100.00
69957;BME280;57283;54.816;9.482;2023-01-04T15:09:18;99964.69;;;10.06;100.00
69957;BME280;57283;54.816;9.482;2023-01-04T15:11:45;76564.25;;;-143.23;100.00
69957;BME280;57283;54.816;9.482;2023-01-04T15:14:13;76564.25;;;-143.23;100.00
69957;BME280;57283;54.816;9.482;2023-01-04T15:16:41;99964.69;;;-143.23;100.00
69957;BME280;57283;54.816;9.482;2023-01-04T15:21:38;99964.69;;;10.06;100.00
69957;BME280;57283;54.816;9.482;2023-01-04T15:24:07;76564.25;;;-143.23;100.00
69957;BME280;57283;54.816;9.482;2023-01-04T15:26:36;76564.25;;;-143.23;100.00
69957;BME280;57283;54.816;9.482;2023-01-04T15:29:04;76564.25;;;-143.23;100.00
69957;BME280;57283;54.816;9.482;2023-01-04T15:31:34;76564.25;;;-143.23;100.00
69957;BME280;57283;54.816;9.482;2023-01-04T15:34:06;76564.25;;;-143.23;100.00
69957;BME280;57283;54.816;9.482;2023-01-04T15:36:34;76564.25;;;-143.23;100.00
69957;BME280;57283;54.816;9.482;2023-01-04T15:39:06;76564.25;;;-143.23;100.00
69957;BME280;57283;54.816;9.482;2023-01-04T15:41:33;76564.25;;;-143.23;100.00
69957;BME280;57283;54.816;9.482;2023-01-04T15:44:18;99964.69;;;10.06;100.00
69957;BME280;57283;54.816;9.482;2023-01-04T15:46:46;58064.31;;;-143.23;100.00
69957;BME280;57283;54.816;9.482;2023-01-04T15:49:16;76564.25;;;-143.23;100.00
69957;BME280;57283;54.816;9.482;2023-01-04T15:51:44;76564.25;;;-143.23;100.00
69957;BME280;57283;54.816;9.482;2023-01-04T15:54:14;76564.25;;;-143.23;100.00
69957;BME280;57283;54.816;9.482;2023-01-04T15:56:42;76564.25;;;-143.23;100.00
69957;BME280;57283;54.816;9.482;2023-01-04T16:01:39;58064.31;;;-143.23;100.00
69957;BME280;57283;54.816;9.482;2023-01-04T16:04:07;58064.31;;;-143.23;0.00
69957;BME280;57283;54.816;9.482;2023-01-04T16:06:37;58064.31;;;-143.23;100.00
69957;BME280;57283;54.816;9.482;2023-01-04T16:11:35;58064.31;;;-143.23;nan
69957;BME280;57283;54.816;9.482;2023-01-04T16:14:23;58064.31;;;-143.23;0.00
69957;BME280;57283;54.816;9.482;2023-01-04T16:16:50;111821.28;;;-143.23;100.00
69957;BME280;57283;54.816;9.482;2023-01-04T16:19:18;58064.31;;;-143.23;100.00
69957;BME280;57283;54.816;9.482;2023-01-04T16:24:14;58064.31;;;-143.23;100.00
69957;BME280;57283;54.816;9.482;2023-01-04T16:29:31;76564.25;;;-143.23;100.00
69957;BME280;57283;54.816;9.482;2023-01-04T16:31:58;99964.69;;;10.06;100.00
69957;BME280;57283;54.816;9.482;2023-01-04T16:34:26;99964.69;;;10.06;100.00
69957;BME280;57283;54.816;9.482;2023-01-04T16:36:54;99964.69;;;10.06;100.00
69957;BME280;57283;54.816;9.482;2023-01-04T16:42:11;76564.25;;;-143.23;100.00
69957;BME280;57283;54.816;9.482;2023-01-04T16:44:39;58064.31;;;-143.23;100.00
69957;BME280;57283;54.816;9.482;2023-01-04T16:52:02;76564.25;;;-143.23;100.00
69957;BME280;57283;54.816;9.482;2023-01-04T16:54:32;76564.25;;;-143.23;100.00
69957;BME280;57283;54.816;9.482;2023-01-04T16:57:00;58064.31;;;-143.23;100.00
69957;BME280;57283;54.816;9.482;2023-01-04T17:01:56;58064.31;;;-143.23;nan
69957;BME280;57283;54.816;9.482;2023-01-04T17:04:24;76564.59;;;-143.23;100.00
69957;BME280;57283;54.816;9.482;2023-01-04T17:06:53;58064.31;;;-143.23;100.00
69957;BME280;57283;54.816;9.482;2023-01-04T17:09:23;58064.31;;;-143.23;nan
69957;BME280;57283;54.816;9.482;2023-01-04T17:11:51;58064.31;;;-143.23;100.00
69957;BME280;57283;54.816;9.482;2023-01-04T17:14:47;58064.31;;;-143.23;100.00
69957;BME280;57283;54.816;9.482;2023-01-04T17:17:36;58064.31;;;-143.23;100.00
69957;BME280;57283;54.816;9.482;2023-01-04T17:20:05;58064.31;;;-143.23;100.00
69957;BME280;57283;54.816;9.482;2023-01-04T17:22:33;58064.31;;;-143.23;nan
69957;BME280;57283;54.816;9.482;2023-01-04T17:25:01;58064.31;;;-143.23;100.00
69957;BME280;57283;54.816;9.482;2023-01-04T17:27:29;58064.31;;;-143.23;100.00
69957;BME280;57283;54.816;9.482;2023-01-04T17:29:58;58064.31;;;-143.23;0.00
69957;BME280;57283;54.816;9.482;2023-01-04T17:32:26;58064.31;;;-143.23;0.00
69957;BME280;57283;54.816;9.482;2023-01-04T17:34:54;111821.28;;;-143.23;100.00
69957;BME280;57283;54.816;9.482;2023-01-04T17:37:23;76564.25;;;-143.23;100.00
69957;BME280;57283;54.816;9.482;2023-01-04T17:39:50;76564.25;;;-143.23;100.00
69957;BME280;57283;54.816;9.482;2023-01-04T17:44:46;76564.25;;;-143.23;100.00
69957;BME280;57283;54.816;9.482;2023-01-04T17:47:16;99964.69;;;10.06;100.00
69957;BME280;57283;54.816;9.482;2023-01-04T17:52:12;76564.25;;;-143.23;100.00
69957;BME280;57283;54.816;9.482;2023-01-04T17:54:49;99964.69;;;10.06;100.00
69957;BME280;57283;54.816;9.482;2023-01-04T17:57:17;99964.69;;;10.06;100.00
69957;BME280;57283;54.816;9.482;2023-01-04T17:59:45;99964.69;;;10.06;100.00
69957;BME280;57283;54.816;9.482;2023-01-04T18:02:13;99964.69;;;10.06;100.00
69957;BME280;57283;54.816;9.482;2023-01-04T18:04:42;99964.69;;;10.06;100.00
69957;BME280;57283;54.816;9.482;2023-01-04T18:07:10;99964.69;;;10.06;100.00
69957;BME280;57283;54.816;9.482;2023-01-04T18:09:43;99964.69;;;10.06;100.00
69957;BME280;57283;54.816;9.482;2023-01-04T18:12:11;99964.69;;;10.06;100.00
69957;BME280;57283;54.816;9.482;2023-01-04T18:14:38;99964.69;;;10.06;100.00
69957;BME280;57283;54.816;9.482;2023-01-04T18:17:06;99964.69;;;10.06;100.00
69957;BME280;57283;54.816;9.482;2023-01-04T18:19:34;99964.69;;;10.06;100.00
69957;BME280;57283;54.816;9.482;2023-01-04T18:22:08;99964.69;;;10.06;100.00
69957;BME280;57283;54.816;9.482;2023-01-04T18:24:36;99964.69;;;10.06;100.00
69957;BME280;57283;54.816;9.482;2023-01-04T18:27:05;99964.69;;;10.06;100.00
69957;BME280;57283;54.816;9.482;2023-01-04T18:29:52;99964.69;;;10.06;100.00
69957;BME280;57283;54.816;9.482;2023-01-04T18:32:21;99964.69;;;10.06;100.00
69957;BME280;57283;54.816;9.482;2023-01-04T18:34:50;99964.69;;;10.06;100.00
69957;BME280;57283;54.816;9.482;2023-01-04T18:37:19;99964.69;;;10.06;100.00
69957;BME280;57283;54.816;9.482;2023-01-04T18:39:47;99964.69;;;10.06;100.00
69957;BME280;57283;54.816;9.482;2023-01-04T18:42:15;99774.91;;;8.97;100.00
69957;BME280;57283;54.816;9.482;2023-01-04T18:44:43;99774.91;;;8.97;100.00
69957;BME280;57283;54.816;9.482;2023-01-04T18:47:15;99774.91;;;8.97;100.00
69957;BME280;57283;54.816;9.482;2023-01-04T18:49:43;99771.31;;;9.01;100.00
69957;BME280;57283;54.816;9.482;2023-01-04T18:52:11;99771.31;;;9.01;100.00
69957;BME280;57283;54.816;9.482;2023-01-04T18:54:41;99770.59;;;8.96;100.00
69957;BME280;57283;54.816;9.482;2023-01-04T18:57:10;99743.56;;;8.75;100.00
69957;BME280;57283;54.816;9.482;2023-01-04T18:59:39;99751.69;;;8.91;100.00
69957;BME280;57283;54.816;9.482;2023-01-04T19:02:10;99764.88;;;8.87;100.00
69957;BME280;57283;54.816;9.482;2023-01-04T19:04:42;99757.22;;;8.82;100.00
69957;BME280;57283;54.816;9.482;2023-01-04T19:07:10;99785.16;;;8.77;100.00
69957;BME280;57283;54.816;9.482;2023-01-04T19:09:38;99767.00;;;8.75;100.00
69957;BME280;57283;54.816;9.482;2023-01-04T19:12:09;99761.28;;;8.66;100.00
69957;BME280;57283;54.816;9.482;2023-01-04T19:14:37;99761.19;;;8.69;100.00
69957;BME280;57283;54.816;9.482;2023-01-04T19:17:06;99769.03;;;8.67;100.00
69957;BME280;57283;54.816;9.482;2023-01-04T19:19:34;99769.97;;;8.65;100.00
69957;BME280;57283;54.816;9.482;2023-01-04T19:22:02;99751.97;;;8.59;100.00
69957;BME280;57283;54.816;9.482;2023-01-04T19:24:30;99733.28;;;8.48;100.00
69957;BME280;57283;54.816;9.482;2023-01-04T19:26:58;99771.69;;;8.66;100.00
69957;BME280;57283;54.816;9.482;2023-01-04T19:29:31;99759.47;;;8.68;100.00
69957;BME280;57283;54.816;9.482;2023-01-04T19:31:59;99759.38;;;8.71;100.00
69957;BME280;57283;54.816;9.482;2023-01-04T19:34:27;99751.81;;;8.63;100.00
69957;BME280;57283;54.816;9.482;2023-01-04T19:36:55;99748.38;;;8.63;100.00
69957;BME280;57283;54.816;9.482;2023-01-04T19:39:23;99740.13;;;8.50;100.00
69957;BME280;57283;54.816;9.482;2023-01-04T19:41:51;99743.97;;;8.65;100.00
69957;BME280;57283;54.816;9.482;2023-01-04T19:44:19;99752.66;;;8.64;100.00
69957;BME280;57283;54.816;9.482;2023-01-04T19:46:48;99735.69;;;8.54;100.00
69957;BME280;57283;54.816;9.482;2023-01-04T19:49:16;99741.50;;;8.60;100.00
69957;BME280;57283;54.816;9.482;2023-01-04T19:51:44;99740.88;;;8.54;100.00
69957;BME280;57283;54.816;9.482;2023-01-04T19:54:13;99740.88;;;8.54;100.00
69957;BME280;57283;54.816;9.482;2023-01-04T19:56:50;99740.88;;;8.54;100.00
69957;BME280;57283;54.816;9.482;2023-01-04T19:59:18;99740.88;;;8.54;100.00
69957;BME280;57283;54.816;9.482;2023-01-04T20:01:48;99740.88;;;8.54;100.00
69957;BME280;57283;54.816;9.482;2023-01-04T20:04:16;99740.88;;;8.54;100.00
69957;BME280;57283;54.816;9.482;2023-01-04T20:06:44;99740.88;;;8.54;100.00
69957;BME280;57283;54.816;9.482;2023-01-04T20:09:12;99740.88;;;8.54;100.00
69957;BME280;57283;54.816;9.482;2023-01-04T20:11:40;99741.03;;;8.49;100.00
69957;BME280;57283;54.816;9.482;2023-01-04T20:14:08;99741.03;;;8.49;100.00
69957;BME280;57283;54.816;9.482;2023-01-04T20:16:35;99741.03;;;8.49;100.00
69957;BME280;57283;54.816;9.482;2023-01-04T20:19:05;99741.03;;;8.49;100.00
69957;BME280;57283;54.816;9.482;2023-01-04T20:21:33;99741.03;;;8.49;100.00
69957;BME280;57283;54.816;9.482;2023-01-04T20:24:01;99741.03;;;8.49;100.00
69957;BME280;57283;54.816;9.482;2023-01-04T20:26:28;99741.03;;;8.49;100.00
69957;BME280;57283;54.816;9.482;2023-01-04T20:28:56;99741.03;;;8.49;100.00
69957;BME280;57283;54.816;9.482;2023-01-04T20:31:24;99741.03;;;8.49;100.00
69957;BME280;57283;54.816;9.482;2023-01-04T20:33:54;99741.03;;;8.49;100.00
69957;BME280;57283;54.816;9.482;2023-01-04T20:36:24;99741.03;;;8.49;100.00